Time;durP1;ratioP1;P1;durP2;ratioP2;P2;SDS_P1;SDS_P2;PMS_P1;PMS_P2;Temp;Humidity;BMP_temperature;BMP_pressure;BME280_temperature;BME280_humidity;BME280_pressure;Samples;Min_cycle;Max_cycle;Signal;HPM_P1;HPM_P2
2022/09/20 00:02:06;;;;;;;3.27;0.93;;;;;;;;;;5068900;28;20203;-61
2022/09/20 00:04:34;;;;;;;2.43;1.03;;;;;;;;;;5063345;28;20228;-61
2022/09/20 00:07:02;;;;;;;3.50;0.80;;;;;;;;;;5069939;28;20211;-61
2022/09/20 00:09:30;;;;;;;4.80;1.23;;;;;;;;;;5066197;28;20219;-61
2022/09/20 00:11:58;;;;;;;0.90;0.80;;;;;;;;;;5066260;28;20217;-61
2022/09/20 00:14:28;;;;;;;3.47;0.90;;;;;;;;;;5066254;28;20227;-63
2022/09/20 00:16:55;;;;;;;2.90;1.40;;;;;;;;;;5066158;28;20203;-63
2022/09/20 00:19:24;;;;;;;1.77;0.60;;;;;;;;;;5068635;28;20198;-63
2022/09/20 00:21:52;;;;;;;5.73;0.90;;;;;;;;;;5063849;28;20206;-63
2022/09/20 00:24:20;;;;;;;1.90;1.07;;;;;;;;;;5059747;28;20229;-63
2022/09/20 00:26:48;;;;;;;3.20;0.73;;;;;;;;;;5066158;28;20213;-63
2022/09/20 00:29:16;;;;;;;4.87;1.07;;;;;;;;;;5057837;28;20234;-63
2022/09/20 00:31:46;;;;;;;1.47;1.00;;;;;;;;;;5061727;28;20203;-63
2022/09/20 00:36:59;;;;;;;4.57;0.83;;;;;;;;;;5057476;28;20210;-63
2022/09/20 00:39:27;;;;;;;6.37;1.13;;;;;;;;;;5058488;28;20195;-63
2022/09/20 00:41:55;;;;;;;4.03;0.80;;;;;;;;;;5057827;28;20201;-63
2022/09/20 00:44:46;;;;;;;1.57;0.80;;;;;;;;;;5059267;28;20215;-63
2022/09/20 00:47:20;;;;;;;1.80;1.10;;;;;;;;;;5059251;28;20198;-63
2022/09/20 00:49:49;;;;;;;6.33;1.20;;;;;;;;;;5054026;28;20233;-63
2022/09/20 00:52:17;;;;;;;3.93;1.20;;;;;;;;;;5055644;28;20203;-63
2022/09/20 00:54:45;;;;;;;5.27;1.00;;;;;;;;;;5056475;28;20234;-63
2022/09/20 00:57:13;;;;;;;3.10;0.80;;;;;;;;;;5060284;28;20203;-63
2022/09/20 00:59:43;;;;;;;2.17;1.20;;;;;;;;;;5058762;28;20662;-63
2022/09/20 01:02:12;;;;;;;3.23;1.20;;;;;;;;;;5058923;28;20285;-63
2022/09/20 01:04:43;;;;;;;2.60;0.80;;;;;;;;;;5058331;28;20333;-63
2022/09/20 01:07:12;;;;;;;2.20;0.93;;;;;;;;;;5057500;28;20203;-63
2022/09/20 01:09:40;;;;;;;3.23;1.10;;;;;;;;;;5058749;28;20788;-63
2022/09/20 01:12:11;;;;;;;4.23;1.27;;;;;;;;;;5063228;28;20202;-63
2022/09/20 01:14:39;;;;;;;3.10;1.07;;;;;;;;;;5060036;28;20229;-63
2022/09/20 01:17:08;;;;;;;1.30;0.90;;;;;;;;;;5057236;28;20203;-63
2022/09/20 01:19:40;;;;;;;4.37;1.00;;;;;;;;;;5062908;28;20199;-63
2022/09/20 01:22:14;;;;;;;2.37;0.70;;;;;;;;;;5057017;28;20206;-63
2022/09/20 01:24:47;;;;;;;5.00;1.10;;;;;;;;;;5059036;28;20301;-63
2022/09/20 01:27:22;;;;;;;3.90;1.00;;;;;;;;;;5053833;28;20205;-63
2022/09/20 01:30:03;;;;;;;2.93;1.13;;;;;;;;;;5056001;28;20222;-63
2022/09/20 01:32:36;;;;;;;4.67;1.00;;;;;;;;;;5053967;28;20198;-63
2022/09/20 01:35:04;;;;;;;2.43;1.03;;;;;;;;;;5056641;28;20381;-63
2022/09/20 01:37:36;;;;;;;2.80;1.47;;;;;;;;;;5054779;28;20202;-63
2022/09/20 01:40:09;;;;;;;3.97;1.10;;;;;;;;;;5058630;28;20200;-63
2022/09/20 01:42:38;;;;;;;3.07;0.90;;;;;;;;;;5054712;28;20261;-63
2022/09/20 01:45:11;;;;;;;3.67;0.90;;;;;;;;;;5058769;28;20240;-63
2022/09/20 01:47:41;;;;;;;2.53;1.17;;;;;;;;;;5067642;28;20214;-63
2022/09/20 01:50:15;;;;;;;2.73;0.93;;;;;;;;;;5064153;28;20227;-63
2022/09/20 01:53:10;;;;;;;2.00;1.17;;;;;;;;;;5056402;28;20206;-63
2022/09/20 01:55:52;;;;;;;1.73;0.93;;;;;;;;;;5062743;28;20325;-63
2022/09/20 01:58:41;;;;;;;1.87;1.00;;;;;;;;;;5068531;28;20720;-63
2022/09/20 02:01:34;;;;;;;4.60;1.17;;;;;;;;;;5041703;28;20218;-63
2022/09/20 02:04:23;;;;;;;1.13;1.03;;;;;;;;;;5063952;28;20226;-63
2022/09/20 02:07:05;;;;;;;4.07;1.10;;;;;;;;;;5037224;28;20201;-63
2022/09/20 02:09:45;;;;;;;3.07;1.10;;;;;;;;;;5073714;28;20198;-63
2022/09/20 02:12:22;;;;;;;3.40;1.20;;;;;;;;;;5062620;28;20667;-63
2022/09/20 02:14:53;;;;;;;2.93;1.00;;;;;;;;;;5062278;28;20226;-63
2022/09/20 02:17:25;;;;;;;2.00;0.90;;;;;;;;;;5050979;28;20658;-63
2022/09/20 02:20:15;;;;;;;3.30;0.83;;;;;;;;;;5075580;28;20199;-63
2022/09/20 02:23:01;;;;;;;6.57;0.93;;;;;;;;;;5065178;28;20202;-63
2022/09/20 02:25:43;;;;;;;4.03;0.90;;;;;;;;;;5053422;28;20198;-63
2022/09/20 02:28:17;;;;;;;4.23;1.30;;;;;;;;;;5057215;28;20545;-63
2022/09/20 02:30:52;;;;;;;2.40;0.67;;;;;;;;;;5068488;28;20219;-63
2022/09/20 02:33:42;;;;;;;2.97;0.90;;;;;;;;;;5064018;28;20229;-63
2022/09/20 02:36:16;;;;;;;2.53;0.80;;;;;;;;;;5072203;28;20558;-63
2022/09/20 02:38:51;;;;;;;2.10;1.00;;;;;;;;;;5063932;28;20203;-63
2022/09/20 02:41:37;;;;;;;2.70;1.00;;;;;;;;;;5070043;28;20618;-62
2022/09/20 02:44:08;;;;;;;2.80;1.00;;;;;;;;;;5071059;28;20224;-63
2022/09/20 02:46:41;;;;;;;3.00;0.60;;;;;;;;;;5053075;28;20221;-63
2022/09/20 02:49:14;;;;;;;1.27;0.90;;;;;;;;;;5067366;28;20533;-63
2022/09/20 02:51:43;;;;;;;2.57;1.00;;;;;;;;;;5059586;28;20578;-63
2022/09/20 02:54:19;;;;;;;4.47;1.03;;;;;;;;;;5076734;28;20240;-63
2022/09/20 02:56:50;;;;;;;4.83;0.90;;;;;;;;;;5073144;28;20286;-63
2022/09/20 02:59:24;;;;;;;2.60;1.10;;;;;;;;;;5069197;28;20230;-63
2022/09/20 03:01:56;;;;;;;4.63;0.80;;;;;;;;;;5072648;28;20562;-63
2022/09/20 03:04:33;;;;;;;2.40;0.93;;;;;;;;;;5069627;28;20223;-63
2022/09/20 03:07:03;;;;;;;4.47;1.03;;;;;;;;;;5063783;28;20195;-63
2022/09/20 03:09:35;;;;;;;2.60;0.90;;;;;;;;;;5067370;28;20206;-63
2022/09/20 03:12:08;;;;;;;4.13;1.77;;;;;;;;;;5074495;28;20222;-63
2022/09/20 03:14:37;;;;;;;3.17;1.20;;;;;;;;;;5058394;28;20369;-63
2022/09/20 03:17:12;;;;;;;2.27;0.90;;;;;;;;;;5071298;28;20203;-63
2022/09/20 03:19:48;;;;;;;2.13;1.13;;;;;;;;;;5063875;28;20199;-63
2022/09/20 03:22:22;;;;;;;2.00;0.73;;;;;;;;;;5059270;28;20643;-63
2022/09/20 03:24:58;;;;;;;7.47;0.90;;;;;;;;;;5059149;28;20584;-63
2022/09/20 03:27:30;;;;;;;7.37;1.13;;;;;;;;;;5066551;28;20202;-63
2022/09/20 03:30:15;;;;;;;2.83;0.90;;;;;;;;;;5067164;28;20203;-63
2022/09/20 03:32:48;;;;;;;6.93;1.00;;;;;;;;;;5061201;28;20550;-63
2022/09/20 03:35:23;;;;;;;2.70;1.23;;;;;;;;;;5061744;28;20226;-63
2022/09/20 03:37:57;;;;;;;4.63;1.03;;;;;;;;;;5058861;28;20198;-63
2022/09/20 03:40:35;;;;;;;2.70;1.00;;;;;;;;;;5074710;28;20210;-63
2022/09/20 03:43:08;;;;;;;2.97;0.80;;;;;;;;;;5067723;28;20209;-63
2022/09/20 03:45:50;;;;;;;2.60;1.10;;;;;;;;;;5058694;28;20216;-63
2022/09/20 03:48:33;;;;;;;1.10;0.80;;;;;;;;;;5066513;28;20205;-63
2022/09/20 03:51:17;;;;;;;2.33;1.20;;;;;;;;;;5049794;28;20226;-63
2022/09/20 03:53:54;;;;;;;2.33;0.80;;;;;;;;;;5056138;28;20686;-63
2022/09/20 03:56:35;;;;;;;3.93;1.20;;;;;;;;;;5070247;28;20587;-63
2022/09/20 03:59:09;;;;;;;5.03;1.30;;;;;;;;;;5058044;28;20612;-63
2022/09/20 04:01:44;;;;;;;1.77;0.90;;;;;;;;;;5066312;28;20209;-63
2022/09/20 04:04:14;;;;;;;1.63;0.80;;;;;;;;;;5058843;28;20727;-63
2022/09/20 04:06:55;;;;;;;2.13;0.80;;;;;;;;;;5066643;28;20206;-63
2022/09/20 04:09:31;;;;;;;4.00;0.90;;;;;;;;;;5071857;28;20290;-63
2022/09/20 04:12:04;;;;;;;1.67;0.90;;;;;;;;;;5065917;28;20684;-63
2022/09/20 04:14:34;;;;;;;2.40;0.90;;;;;;;;;;5064886;28;20253;-63
2022/09/20 04:17:05;;;;;;;3.80;0.63;;;;;;;;;;5076904;28;20207;-62
2022/09/20 04:19:37;;;;;;;2.33;0.87;;;;;;;;;;5070195;28;20684;-62
2022/09/20 04:22:08;;;;;;;3.40;1.00;;;;;;;;;;5057974;28;20202;-62
2022/09/20 04:24:40;;;;;;;2.43;0.90;;;;;;;;;;5065554;28;20229;-63
2022/09/20 04:27:12;;;;;;;2.83;1.10;;;;;;;;;;5059786;28;20208;-63
2022/09/20 04:29:44;;;;;;;2.70;1.30;;;;;;;;;;5065726;28;20211;-63
2022/09/20 04:32:16;;;;;;;2.90;1.10;;;;;;;;;;5054753;28;20221;-61
2022/09/20 04:37:34;;;;;;;4.80;1.30;;;;;;;;;;5055131;28;20206;-61
2022/09/20 04:40:07;;;;;;;2.17;0.57;;;;;;;;;;5075612;28;20199;-63
2022/09/20 04:42:59;;;;;;;2.37;1.00;;;;;;;;;;5070444;28;20239;-63
2022/09/20 04:45:41;;;;;;;2.77;1.47;;;;;;;;;;5062237;28;20666;-62
2022/09/20 04:48:35;;;;;;;3.43;1.30;;;;;;;;;;5065922;28;20617;-61
2022/09/20 04:51:20;;;;;;;5.00;1.50;;;;;;;;;;5065415;28;20201;-61
2022/09/20 04:54:04;;;;;;;2.97;1.10;;;;;;;;;;5026672;28;20257;-60
2022/09/20 04:56:41;;;;;;;4.20;1.10;;;;;;;;;;5059812;28;20202;-60
2022/09/20 04:59:10;;;;;;;3.80;1.07;;;;;;;;;;5066968;28;20224;-60
2022/09/20 05:02:08;;;;;;;4.87;1.37;;;;;;;;;;5070809;28;20194;-61
2022/09/20 05:04:55;;;;;;;3.73;0.97;;;;;;;;;;5058007;28;20536;-61
2022/09/20 05:07:40;;;;;;;7.23;1.30;;;;;;;;;;5056192;28;20206;-61
2022/09/20 05:10:24;;;;;;;4.37;1.20;;;;;;;;;;5056912;28;20203;-60
2022/09/20 05:13:04;;;;;;;5.33;0.90;;;;;;;;;;5055353;28;20219;-60
2022/09/20 05:15:38;;;;;;;6.77;1.07;;;;;;;;;;5057021;28;20221;-61
2022/09/20 05:18:16;;;;;;;1.60;1.13;;;;;;;;;;5053917;28;20202;-61
2022/09/20 05:20:49;;;;;;;5.43;1.13;;;;;;;;;;5055507;28;20820;-60
2022/09/20 05:23:32;;;;;;;1.80;1.40;;;;;;;;;;5060571;28;20689;-60
2022/09/20 05:26:07;;;;;;;11.33;1.40;;;;;;;;;;5058087;28;20211;-60
2022/09/20 05:28:39;;;;;;;4.57;1.30;;;;;;;;;;5054157;28;20209;-60
2022/09/20 05:31:11;;;;;;;7.17;1.40;;;;;;;;;;5059406;28;20209;-60
2022/09/20 05:33:43;;;;;;;7.83;1.20;;;;;;;;;;5055383;28;20218;-60
2022/09/20 05:36:16;;;;;;;3.80;1.03;;;;;;;;;;5062307;28;20198;-61
2022/09/20 05:38:47;;;;;;;1.57;1.10;;;;;;;;;;5064577;28;20221;-60
2022/09/20 05:41:23;;;;;;;3.20;1.00;;;;;;;;;;5069180;28;20296;-60
2022/09/20 05:43:53;;;;;;;6.50;1.13;;;;;;;;;;5069448;28;20224;-60
2022/09/20 05:46:34;;;;;;;3.13;1.23;;;;;;;;;;5065065;28;20218;-60
2022/09/20 05:49:07;;;;;;;10.83;1.47;;;;;;;;;;5063932;28;20195;-60
2022/09/20 05:51:39;;;;;;;21.07;2.47;;;;;;;;;;5055443;28;20202;-60
2022/09/20 05:54:18;;;;;;;4.70;1.17;;;;;;;;;;5075260;28;20713;-60
2022/09/20 05:56:53;;;;;;;6.47;1.10;;;;;;;;;;5067561;28;20661;-60
2022/09/20 05:59:29;;;;;;;5.60;1.30;;;;;;;;;;5066723;28;20217;-60
2022/09/20 06:02:14;;;;;;;4.07;1.37;;;;;;;;;;5064427;28;20277;-60
2022/09/20 06:04:44;;;;;;;1.33;0.83;;;;;;;;;;5056584;28;20219;-60
2022/09/20 06:07:17;;;;;;;2.00;1.00;;;;;;;;;;5064660;28;20207;-60
2022/09/20 06:09:57;;;;;;;2.63;1.27;;;;;;;;;;5066650;28;20205;-64
2022/09/20 06:12:34;;;;;;;3.47;1.20;;;;;;;;;;5063627;28;20309;-64
2022/09/20 06:15:04;;;;;;;5.30;1.30;;;;;;;;;;5065092;28;20321;-64
2022/09/20 06:17:34;;;;;;;9.43;1.87;;;;;;;;;;5070496;28;20206;-64
2022/09/20 06:20:11;;;;;;;2.40;1.07;;;;;;;;;;5069718;28;20216;-64
2022/09/20 06:22:41;;;;;;;2.20;0.73;;;;;;;;;;5066928;28;20203;-64
2022/09/20 06:25:16;;;;;;;3.93;1.23;;;;;;;;;;5056739;28;20319;-64
2022/09/20 06:27:50;;;;;;;4.90;1.30;;;;;;;;;;5060983;28;20256;-64
2022/09/20 06:30:19;;;;;;;3.63;1.13;;;;;;;;;;5057319;28;20199;-64
2022/09/20 06:32:54;;;;;;;4.13;1.50;;;;;;;;;;5060512;28;20223;-64
2022/09/20 06:35:23;;;;;;;2.83;1.10;;;;;;;;;;5075958;28;20205;-64
2022/09/20 06:43:30;;;;;;;2.13;0.97;;;;;;;;;;5072484;28;20597;-63
2022/09/20 06:45:58;;;;;;;3.57;1.00;;;;;;;;;;5061886;28;20201;-64
2022/09/20 06:48:28;;;;;;;5.90;2.23;;;;;;;;;;5058616;28;20210;-63
2022/09/20 06:50:56;;;;;;;1.10;0.90;;;;;;;;;;5060061;28;20281;-64
2022/09/20 06:53:28;;;;;;;2.70;1.10;;;;;;;;;;5061650;28;20238;-63
2022/09/20 06:55:56;;;;;;;2.87;1.00;;;;;;;;;;5058356;28;20205;-64
2022/09/20 06:58:25;;;;;;;5.20;1.00;;;;;;;;;;5059202;28;20207;-64
2022/09/20 07:00:54;;;;;;;2.30;1.03;;;;;;;;;;5056423;28;20203;-64
2022/09/20 07:03:22;;;;;;;8.53;1.37;;;;;;;;;;5060445;28;20223;-64
2022/09/20 07:05:50;;;;;;;4.87;1.07;;;;;;;;;;5058495;28;20207;-64
2022/09/20 07:08:18;;;;;;;2.47;0.93;;;;;;;;;;5061440;28;20202;-64
2022/09/20 07:10:47;;;;;;;1.63;0.70;;;;;;;;;;5058078;28;20217;-64
2022/09/20 07:13:15;;;;;;;4.37;1.20;;;;;;;;;;5062652;28;20228;-64
2022/09/20 07:15:42;;;;;;;5.43;1.23;;;;;;;;;;5061938;28;20210;-64
2022/09/20 07:18:12;;;;;;;5.73;1.50;;;;;;;;;;5059707;28;20229;-64
2022/09/20 07:20:40;;;;;;;5.03;1.53;;;;;;;;;;5064276;28;20290;-64
2022/09/20 07:23:08;;;;;;;6.80;1.10;;;;;;;;;;5057691;28;20307;-64
2022/09/20 07:25:37;;;;;;;3.23;1.30;;;;;;;;;;5059379;28;20198;-64
2022/09/20 07:28:05;;;;;;;1.00;0.90;;;;;;;;;;5058638;28;20199;-64
2022/09/20 07:30:33;;;;;;;4.20;1.00;;;;;;;;;;5058513;28;20685;-64
2022/09/20 07:33:01;;;;;;;5.13;1.23;;;;;;;;;;5064022;28;20218;-64
2022/09/20 07:35:30;;;;;;;2.80;1.10;;;;;;;;;;5060474;28;20662;-64
2022/09/20 07:37:58;;;;;;;5.20;1.57;;;;;;;;;;5062643;28;20206;-65
2022/09/20 07:40:26;;;;;;;1.47;1.10;;;;;;;;;;5069240;28;20797;-65
2022/09/20 07:42:56;;;;;;;3.47;1.43;;;;;;;;;;5069440;28;20225;-65
2022/09/20 07:45:24;;;;;;;1.20;0.80;;;;;;;;;;5073367;28;20206;-64
2022/09/20 07:47:53;;;;;;;6.27;1.20;;;;;;;;;;5057023;28;20210;-64
2022/09/20 07:50:21;;;;;;;5.40;1.17;;;;;;;;;;5064350;28;20209;-64
2022/09/20 07:52:50;;;;;;;3.60;1.00;;;;;;;;;;5064354;28;20211;-64
2022/09/20 07:55:18;;;;;;;4.20;1.10;;;;;;;;;;5069821;28;20234;-62
2022/09/20 07:57:46;;;;;;;7.20;1.00;;;;;;;;;;5067398;28;20217;-62
2022/09/20 08:00:14;;;;;;;2.17;1.13;;;;;;;;;;5066252;28;20717;-61
2022/09/20 08:02:43;;;;;;;2.13;1.13;;;;;;;;;;5066247;28;20213;-61
2022/09/20 08:05:11;;;;;;;4.30;0.90;;;;;;;;;;5068779;28;20232;-61
2022/09/20 08:07:39;;;;;;;2.83;0.90;;;;;;;;;;5069648;28;20198;-60
2022/09/20 08:10:09;;;;;;;3.27;1.10;;;;;;;;;;5068815;28;20230;-61
2022/09/20 08:12:37;;;;;;;3.37;1.00;;;;;;;;;;5071276;28;20201;-61
2022/09/20 08:15:25;;;;;;;2.10;0.90;;;;;;;;;;5058044;28;20196;-60
2022/09/20 08:17:53;;;;;;;3.83;1.07;;;;;;;;;;5066257;28;20199;-61
2022/09/20 08:20:21;;;;;;;5.33;1.70;;;;;;;;;;5073861;28;20207;-59
2022/09/20 08:22:49;;;;;;;3.20;1.03;;;;;;;;;;5059265;28;20211;-59
2022/09/20 08:25:38;;;;;;;4.70;1.60;;;;;;;;;;5059622;28;20199;-59
2022/09/20 08:28:06;;;;;;;2.13;0.80;;;;;;;;;;5058325;28;20195;-60
2022/09/20 08:30:34;;;;;;;7.23;1.50;;;;;;;;;;5068062;28;20211;-59
2022/09/20 08:33:03;;;;;;;3.80;1.23;;;;;;;;;;5068485;28;20214;-59
2022/09/20 08:35:31;;;;;;;2.07;1.00;;;;;;;;;;5068557;28;20202;-59
2022/09/20 08:37:59;;;;;;;1.77;0.80;;;;;;;;;;5071302;28;20210;-59
2022/09/20 08:40:49;;;;;;;8.00;1.20;;;;;;;;;;5068574;28;20202;-59
2022/09/20 08:43:17;;;;;;;1.87;1.10;;;;;;;;;;5061946;28;20215;-59
2022/09/20 08:45:49;;;;;;;5.67;1.13;;;;;;;;;;5051262;28;20641;-59
2022/09/20 08:48:17;;;;;;;3.07;0.90;;;;;;;;;;5043928;28;20261;-59
2022/09/20 08:50:45;;;;;;;2.53;1.13;;;;;;;;;;5053430;28;20199;-59
2022/09/20 08:53:14;;;;;;;6.60;1.43;;;;;;;;;;5051913;28;20229;-60
2022/09/20 08:55:49;;;;;;;5.90;1.50;;;;;;;;;;5053826;28;20266;-59
2022/09/20 08:58:18;;;;;;;2.67;1.20;;;;;;;;;;5051189;28;20206;-59
2022/09/20 09:00:46;;;;;;;2.97;1.10;;;;;;;;;;5056902;28;20207;-59
2022/09/20 09:03:16;;;;;;;6.80;1.47;;;;;;;;;;5042625;28;20226;-59
2022/09/20 09:05:45;;;;;;;4.00;1.00;;;;;;;;;;5053592;28;20214;-59
2022/09/20 09:08:15;;;;;;;3.50;1.00;;;;;;;;;;5055244;28;20203;-60
2022/09/20 09:10:44;;;;;;;4.10;0.90;;;;;;;;;;5054321;28;20317;-59
2022/09/20 09:13:20;;;;;;;2.43;1.40;;;;;;;;;;5050964;28;20195;-60
2022/09/20 09:15:51;;;;;;;3.03;1.23;;;;;;;;;;5053032;28;20243;-59
2022/09/20 09:18:19;;;;;;;2.60;1.00;;;;;;;;;;5052769;28;20199;-60
2022/09/20 09:20:47;;;;;;;2.77;1.10;;;;;;;;;;5053892;28;20202;-60
2022/09/20 09:23:24;;;;;;;4.97;0.90;;;;;;;;;;5043484;28;20694;-60
2022/09/20 09:25:53;;;;;;;3.47;1.20;;;;;;;;;;5047184;28;20531;-60
2022/09/20 09:28:24;;;;;;;3.43;1.20;;;;;;;;;;5068227;28;20194;-60
2022/09/20 09:30:53;;;;;;;8.27;1.37;;;;;;;;;;5060527;28;20198;-60
2022/09/20 09:33:25;;;;;;;4.47;1.10;;;;;;;;;;5067098;28;20253;-60
2022/09/20 09:35:54;;;;;;;7.00;1.30;;;;;;;;;;5067243;28;20560;-60
2022/09/20 09:38:23;;;;;;;4.87;1.00;;;;;;;;;;5066163;28;20214;-60
2022/09/20 09:40:53;;;;;;;2.67;1.10;;;;;;;;;;5064808;28;20199;-60
2022/09/20 09:43:22;;;;;;;4.60;1.30;;;;;;;;;;5061680;28;20226;-60
2022/09/20 09:45:52;;;;;;;10.70;1.57;;;;;;;;;;5056454;28;20535;-60
2022/09/20 09:48:22;;;;;;;4.47;1.20;;;;;;;;;;5054178;28;20780;-60
2022/09/20 09:50:52;;;;;;;4.07;1.60;;;;;;;;;;5072116;28;20561;-59
2022/09/20 09:53:22;;;;;;;2.23;1.20;;;;;;;;;;5058698;28;20223;-60
2022/09/20 09:56:05;;;;;;;8.03;1.93;;;;;;;;;;5061777;28;20550;-59
2022/09/20 09:58:48;;;;;;;3.47;1.37;;;;;;;;;;5064411;28;20204;-59
2022/09/20 10:01:24;;;;;;;5.13;1.50;;;;;;;;;;5058506;28;20199;-60
2022/09/20 10:04:02;;;;;;;6.13;1.63;;;;;;;;;;5068441;28;20217;-60
2022/09/20 10:06:33;;;;;;;4.23;0.97;;;;;;;;;;5069569;28;20214;-60
2022/09/20 10:09:08;;;;;;;3.47;1.30;;;;;;;;;;5061872;28;20282;-59
2022/09/20 10:11:43;;;;;;;4.87;1.23;;;;;;;;;;5073642;28;20621;-60
2022/09/20 10:14:17;;;;;;;2.40;0.77;;;;;;;;;;5054888;28;20230;-59
2022/09/20 10:16:55;;;;;;;2.97;1.10;;;;;;;;;;5054491;28;20195;-59
2022/09/20 10:19:30;;;;;;;2.83;1.00;;;;;;;;;;5058349;28;20233;-59
2022/09/20 10:22:01;;;;;;;2.60;1.10;;;;;;;;;;5066135;28;20641;-59
2022/09/20 10:24:33;;;;;;;7.43;1.33;;;;;;;;;;5061066;28;20221;-60
2022/09/20 10:27:12;;;;;;;2.40;1.10;;;;;;;;;;5069327;28;20215;-60
2022/09/20 10:29:46;;;;;;;3.17;1.07;;;;;;;;;;5068823;28;20207;-59
2022/09/20 10:32:21;;;;;;;1.83;1.00;;;;;;;;;;5078085;28;20214;-59
2022/09/20 10:35:03;;;;;;;3.67;1.20;;;;;;;;;;5064030;28;20248;-59
2022/09/20 10:37:39;;;;;;;3.93;0.97;;;;;;;;;;5061514;28;20199;-59
2022/09/20 10:40:13;;;;;;;2.60;0.77;;;;;;;;;;5064874;28;20621;-59
2022/09/20 10:45:33;;;;;;;4.53;1.00;;;;;;;;;;5062763;28;20199;-59
2022/09/20 10:48:27;;;;;;;0.83;0.57;;;;;;;;;;5053921;28;20210;-59
2022/09/20 10:50:58;;;;;;;0.70;0.70;;;;;;;;;;5066982;28;20646;-59
2022/09/20 10:53:29;;;;;;;6.90;0.90;;;;;;;;;;5067463;28;20229;-59
2022/09/20 10:56:02;;;;;;;1.67;0.80;;;;;;;;;;5056325;28;20225;-59
2022/09/20 10:58:47;;;;;;;4.97;1.13;;;;;;;;;;5064887;28;20206;-59
2022/09/20 11:01:18;;;;;;;3.20;0.90;;;;;;;;;;5057531;28;20209;-59
2022/09/20 11:04:01;;;;;;;1.63;0.70;;;;;;;;;;5061029;28;20266;-59
2022/09/20 11:06:37;;;;;;;2.10;0.80;;;;;;;;;;5058231;28;20214;-59
2022/09/20 11:09:08;;;;;;;1.60;0.70;;;;;;;;;;5059404;28;20202;-59
2022/09/20 11:11:43;;;;;;;3.60;1.00;;;;;;;;;;5065913;28;20306;-59
2022/09/20 11:14:13;;;;;;;1.00;0.90;;;;;;;;;;5064463;28;20226;-59
2022/09/20 11:16:43;;;;;;;1.93;0.93;;;;;;;;;;5065355;28;20209;-60
2022/09/20 11:19:17;;;;;;;3.30;1.00;;;;;;;;;;5054908;28;20660;-60
2022/09/20 11:21:48;;;;;;;4.33;1.20;;;;;;;;;;5063060;28;20668;-61
2022/09/20 11:24:20;;;;;;;3.03;0.90;;;;;;;;;;5071348;28;20214;-60
2022/09/20 11:26:50;;;;;;;2.27;0.80;;;;;;;;;;5074671;28;20660;-60
2022/09/20 11:29:21;;;;;;;4.57;0.80;;;;;;;;;;5068261;28;20206;-60
2022/09/20 11:31:50;;;;;;;5.00;1.30;;;;;;;;;;5060983;28;20218;-60
2022/09/20 11:34:21;;;;;;;1.53;0.70;;;;;;;;;;5066272;28;20230;-60
2022/09/20 11:36:53;;;;;;;2.07;0.90;;;;;;;;;;5065746;28;20203;-60
2022/09/20 11:39:22;;;;;;;0.73;0.60;;;;;;;;;;5071830;28;20300;-60
2022/09/20 11:41:52;;;;;;;2.03;1.00;;;;;;;;;;5070642;28;20289;-60
2022/09/20 11:44:20;;;;;;;3.00;0.70;;;;;;;;;;5068178;28;20226;-60
2022/09/20 11:46:51;;;;;;;1.63;0.70;;;;;;;;;;5066405;28;20262;-60
2022/09/20 11:49:23;;;;;;;1.93;0.80;;;;;;;;;;5066170;28;20650;-60
2022/09/20 11:52:09;;;;;;;3.50;0.97;;;;;;;;;;5067888;28;20203;-60
2022/09/20 11:54:54;;;;;;;5.67;0.90;;;;;;;;;;5051702;28;20591;-60
2022/09/20 11:57:23;;;;;;;8.23;1.20;;;;;;;;;;5076270;28;20195;-60
2022/09/20 11:59:53;;;;;;;3.73;0.70;;;;;;;;;;5068770;28;20639;-60
2022/09/20 12:02:23;;;;;;;3.90;0.80;;;;;;;;;;5073451;28;20206;-60
2022/09/20 12:04:54;;;;;;;0.83;0.60;;;;;;;;;;5059033;28;20219;-60
2022/09/20 12:07:24;;;;;;;0.97;0.73;;;;;;;;;;5067572;28;20680;-60
2022/09/20 12:09:54;;;;;;;2.87;0.80;;;;;;;;;;5066388;28;20194;-60
2022/09/20 12:12:28;;;;;;;4.37;1.00;;;;;;;;;;5067202;28;20209;-60
2022/09/20 12:14:57;;;;;;;3.70;0.93;;;;;;;;;;5062923;28;20245;-60
2022/09/20 12:17:44;;;;;;;3.07;1.00;;;;;;;;;;5060918;28;20286;-60
2022/09/20 12:20:30;;;;;;;2.40;0.83;;;;;;;;;;5061784;28;20209;-60
2022/09/20 12:23:13;;;;;;;3.03;0.90;;;;;;;;;;5057413;28;20776;-60
2022/09/20 12:26:00;;;;;;;3.27;1.10;;;;;;;;;;5065812;28;20578;-60
2022/09/20 12:28:33;;;;;;;2.57;1.40;;;;;;;;;;5059881;28;20202;-60
2022/09/20 12:31:19;;;;;;;7.27;1.37;;;;;;;;;;5055785;28;20199;-60
2022/09/20 12:33:55;;;;;;;2.40;1.10;;;;;;;;;;5062131;28;20299;-59
2022/09/20 12:36:24;;;;;;;1.10;0.97;;;;;;;;;;5061275;28;20229;-59
2022/09/20 12:39:00;;;;;;;1.90;1.33;;;;;;;;;;5058287;28;20207;-60
2022/09/20 12:41:44;;;;;;;3.30;0.97;;;;;;;;;;5066602;28;20547;-59
2022/09/20 12:44:23;;;;;;;1.70;0.93;;;;;;;;;;5068638;28;20218;-59
2022/09/20 12:46:53;;;;;;;2.27;0.93;;;;;;;;;;5054283;28;20203;-58
2022/09/20 12:55:07;;;;;;;1.17;0.77;;;;;;;;;;5066985;28;20238;-60
2022/09/20 12:57:39;;;;;;;3.27;1.00;;;;;;;;;;5071582;28;20738;-58
2022/09/20 13:00:08;;;;;;;1.67;0.97;;;;;;;;;;5064421;28;20207;-58
2022/09/20 13:02:56;;;;;;;2.03;1.50;;;;;;;;;;5063341;28;20214;-58
2022/09/20 13:05:35;;;;;;;5.93;1.20;;;;;;;;;;5060086;28;20214;-58
2022/09/20 13:08:09;;;;;;;1.53;0.80;;;;;;;;;;5066633;28;20220;-60
2022/09/20 13:10:39;;;;;;;4.80;1.00;;;;;;;;;;5070340;28;20219;-58
2022/09/20 13:13:27;;;;;;;5.07;1.10;;;;;;;;;;5062594;28;20513;-58
2022/09/20 13:15:55;;;;;;;3.43;1.10;;;;;;;;;;5065156;28;20234;-58
2022/09/20 13:18:25;;;;;;;4.97;0.80;;;;;;;;;;5063252;28;20221;-58
2022/09/20 13:20:54;;;;;;;2.93;1.10;;;;;;;;;;5059536;28;20225;-58
2022/09/20 13:23:25;;;;;;;2.13;0.70;;;;;;;;;;5060547;28;20218;-58
2022/09/20 13:25:54;;;;;;;4.77;1.00;;;;;;;;;;5062920;28;20203;-58
2022/09/20 13:28:29;;;;;;;1.87;0.77;;;;;;;;;;5064208;28;20688;-58
2022/09/20 13:31:16;;;;;;;0.70;0.70;;;;;;;;;;5066528;28;20202;-58
2022/09/20 13:33:44;;;;;;;2.27;1.00;;;;;;;;;;5059010;28;20219;-58
2022/09/20 13:36:12;;;;;;;3.30;1.07;;;;;;;;;;5056827;28;20223;-58
2022/09/20 13:38:40;;;;;;;4.30;0.83;;;;;;;;;;5056533;28;20209;-58
2022/09/20 13:41:10;;;;;;;4.70;1.30;;;;;;;;;;5046873;28;20210;-58
2022/09/20 13:43:40;;;;;;;1.17;0.77;;;;;;;;;;5060470;28;20226;-58
2022/09/20 13:46:09;;;;;;;1.53;0.63;;;;;;;;;;5067922;28;20198;-58
2022/09/20 13:48:37;;;;;;;3.07;1.10;;;;;;;;;;5052896;28;20211;-58
2022/09/20 13:51:16;;;;;;;2.70;1.10;;;;;;;;;;5056299;28;20198;-58
2022/09/20 13:53:45;;;;;;;3.23;0.80;;;;;;;;;;5058235;28;20231;-58
2022/09/20 13:56:18;;;;;;;5.50;0.80;;;;;;;;;;5065024;28;20226;-58
2022/09/20 13:58:48;;;;;;;5.23;0.67;;;;;;;;;;5067952;28;20202;-58
2022/09/20 14:01:24;;;;;;;5.40;0.90;;;;;;;;;;5066095;28;20203;-58
2022/09/20 14:03:52;;;;;;;3.37;0.90;;;;;;;;;;5064022;28;20225;-58
2022/09/20 14:06:25;;;;;;;1.57;0.90;;;;;;;;;;5062314;28;20202;-58
2022/09/20 14:08:54;;;;;;;3.53;1.77;;;;;;;;;;5064754;28;20214;-59
2022/09/20 14:11:23;;;;;;;0.73;0.57;;;;;;;;;;5070955;28;20566;-58
2022/09/20 14:13:54;;;;;;;3.43;1.10;;;;;;;;;;5060558;28;20225;-60
2022/09/20 14:16:23;;;;;;;2.00;1.10;;;;;;;;;;5061905;28;20214;-61
2022/09/20 14:18:51;;;;;;;2.10;0.93;;;;;;;;;;5056508;28;20194;-61
2022/09/20 14:21:21;;;;;;;1.73;0.70;;;;;;;;;;5055738;28;20203;-61
2022/09/20 14:23:51;;;;;;;5.70;0.90;;;;;;;;;;5056940;28;20226;-60
2022/09/20 14:26:23;;;;;;;4.13;0.90;;;;;;;;;;5064540;28;20275;-60
2022/09/20 14:28:52;;;;;;;2.80;0.67;;;;;;;;;;5058700;28;20567;-61
2022/09/20 14:31:22;;;;;;;5.37;0.80;;;;;;;;;;5050509;28;20205;-60
2022/09/20 14:33:52;;;;;;;2.70;0.90;;;;;;;;;;5059669;28;20230;-61
2022/09/20 14:36:23;;;;;;;2.03;0.67;;;;;;;;;;5059668;28;20618;-60
2022/09/20 14:38:53;;;;;;;2.23;1.03;;;;;;;;;;5064026;28;20557;-61
2022/09/20 14:41:28;;;;;;;3.80;0.80;;;;;;;;;;5060256;28;20206;-62
2022/09/20 14:43:59;;;;;;;2.30;0.77;;;;;;;;;;5068733;28;20222;-61
2022/09/20 14:46:32;;;;;;;0.97;0.50;;;;;;;;;;5068030;28;20194;-58
2022/09/20 14:49:20;;;;;;;3.67;0.90;;;;;;;;;;5062841;28;20200;-60
2022/09/20 14:51:48;;;;;;;1.30;0.70;;;;;;;;;;5071076;28;20226;-59
2022/09/20 14:54:24;;;;;;;2.70;0.80;;;;;;;;;;5074805;28;20238;-59
2022/09/20 14:56:52;;;;;;;0.77;0.70;;;;;;;;;;5063062;28;20227;-59
2022/09/20 14:59:24;;;;;;;2.30;0.73;;;;;;;;;;5059780;28;20203;-59
2022/09/20 15:01:56;;;;;;;3.23;1.07;;;;;;;;;;5070157;28;20568;-59
2022/09/20 15:04:25;;;;;;;4.67;1.10;;;;;;;;;;5075484;28;20241;-59
2022/09/20 15:06:54;;;;;;;4.07;1.10;;;;;;;;;;5059758;28;20199;-59
2022/09/20 15:09:22;;;;;;;1.60;1.10;;;;;;;;;;5075753;28;20198;-59
2022/09/20 15:12:00;;;;;;;5.00;1.03;;;;;;;;;;5065417;28;20568;-59
2022/09/20 15:14:29;;;;;;;3.33;1.20;;;;;;;;;;5067910;28;20223;-59
2022/09/20 15:17:04;;;;;;;0.87;0.83;;;;;;;;;;5066808;28;20689;-58
2022/09/20 15:19:33;;;;;;;1.60;0.90;;;;;;;;;;5070343;28;20203;-59
2022/09/20 15:22:01;;;;;;;1.03;0.67;;;;;;;;;;5070822;28;20229;-59
2022/09/20 15:24:29;;;;;;;1.50;0.87;;;;;;;;;;5071781;28;22570;-59
2022/09/20 15:26:57;;;;;;;1.17;1.00;;;;;;;;;;5074105;28;20214;-59
2022/09/20 15:29:25;;;;;;;3.20;0.90;;;;;;;;;;5078362;28;20206;-59
2022/09/20 15:31:54;;;;;;;2.73;1.00;;;;;;;;;;5079034;28;20198;-58
2022/09/20 15:34:22;;;;;;;1.73;0.80;;;;;;;;;;5068980;28;20229;-59
2022/09/20 15:36:50;;;;;;;4.63;1.37;;;;;;;;;;5067160;28;20230;-60
2022/09/20 15:39:19;;;;;;;5.33;0.80;;;;;;;;;;5059262;28;20211;-60